Time,TemperatureF,DewpointF,PressureIn,WindDirection,WindDirectionDegrees,WindSpeedMPH,WindSpeedGustMPH,Humidity,HourlyPrecipIn,Conditions,Clouds,dailyrainin,SoftwareType,DateUTC
2013-04-30 00:00:00,60.5,59.9,29.99,SE,130,0.0,0.0,98,0.00,,,0.00,Wunderground v.1.15,2013-04-30 04:00:00,
2013-04-30 00:05:00,60.4,59.8,29.99,SE,130,0.0,0.0,98,0.00,,,0.00,Wunderground v.1.15,2013-04-30 04:05:00,
2013-04-30 00:10:00,60.5,59.9,29.99,SE,129,0.0,0.0,98,0.00,,,0.00,Wunderground v.1.15,2013-04-30 04:10:00,
2013-04-30 00:15:00,60.5,59.9,29.99,SE,130,0.0,0.0,98,0.00,,,0.00,Wunderground v.1.15,2013-04-30 04:15:00,
2013-04-30 07:05:00,59.9,59.6,30.05,ESE,116,0.0,0.0,99,0.00,,,0.00,Wunderground v.1.15,2013-04-30 11:05:00,
2013-04-30 07:10:00,59.9,59.6,30.05,ESE,116,0.0,0.0,99,0.00,,,0.00,Wunderground v.1.15,2013-04-30 11:10:00,
2013-04-30 07:15:00,59.8,59.5,30.05,ESE,116,0.0,0.0,99,0.00,,,0.00,Wunderground v.1.15,2013-04-30 11:15:00,
2013-04-30 07:25:00,59.8,59.5,30.05,ESE,116,0.0,0.0,99,0.00,,,0.00,Wunderground v.1.15,2013-04-30 11:25:00,
2013-04-30 07:30:00,59.8,59.5,30.05,ESE,116,0.0,0.0,99,0.00,,,0.00,Wunderground v.1.15,2013-04-30 11:30:00,
2013-04-30 07:40:00,59.8,59.5,30.06,ESE,115,0.0,0.0,99,0.00,,,0.00,Wunderground v.1.15,2013-04-30 11:40:00,
2013-04-30 07:45:00,59.8,59.5,30.06,ESE,116,0.0,0.0,99,0.00,,,0.00,Wunderground v.1.15,2013-04-30 11:45:00,
2013-04-30 07:55:00,59.8,59.5,30.06,ESE,116,0.0,0.0,99,0.00,,,0.00,Wunderground v.1.15,2013-04-30 11:55:00,
2013-04-30 08:00:00,59.8,59.5,30.07,ESE,117,0.0,0.0,99,0.00,,,0.00,Wunderground v.1.15,2013-04-30 12:00:00,
2013-04-30 08:10:00,59.8,59.5,30.07,ESE,117,0.0,0.0,99,0.00,,,0.00,Wunderground v.1.15,2013-04-30 12:10:00,
2013-04-30 08:15:00,59.8,59.5,30.07,ESE,117,0.0,0.0,99,0.00,,,0.00,Wunderground v.1.15,2013-04-30 12:15:00,
2013-04-30 08:20:00,59.8,59.5,30.07,East,83,0.0,0.0,99,0.00,,,0.00,Wunderground v.1.15,2013-04-30 12:20:00,
2013-04-30 08:25:00,59.8,59.5,30.07,SE,141,0.0,0.0,99,0.00,,,0.00,Wunderground v.1.15,2013-04-30 12:25:00,
2013-04-30 08:35:00,59.8,59.5,30.07,SE,141,0.0,0.0,99,0.00,,,0.00,Wunderground v.1.15,2013-04-30 12:35:00,
2013-04-30 08:40:00,59.8,59.5,30.08,SE,138,0.0,0.0,99,0.00,,,0.00,Wunderground v.1.15,2013-04-30 12:40:00,
2013-04-30 08:45:00,59.8,59.5,30.08,East,98,0.0,0.0,99,0.00,,,0.00,Wunderground v.1.15,2013-04-30 12:45:00,
2013-04-30 08:55:00,59.9,59.6,30.08,East,99,0.0,0.0,99,0.00,,,0.00,Wunderground v.1.15,2013-04-30 12:55:00,
2013-04-30 09:00:00,59.9,59.6,30.08,East,99,0.0,0.0,99,0.00,,,0.00,Wunderground v.1.15,2013-04-30 13:00:00,
2013-04-30 09:10:00,60.1,59.5,30.08,ENE,64,0.0,0.0,98,0.00,,,0.00,Wunderground v.1.15,2013-04-30 13:10:00,
2013-04-30 09:15:00,60.1,59.5,30.08,East,79,0.0,0.0,98,0.00,,,0.01,Wunderground v.1.15,2013-04-30 13:15:00,
2013-04-30 09:20:00,60.2,59.6,30.08,ENE,72,0.0,0.0,98,0.00,,,0.01,Wunderground v.1.15,2013-04-30 13:20:00,
2013-04-30 09:30:00,60.3,59.7,30.08,ESE,115,0.0,0.0,98,0.00,,,0.01,Wunderground v.1.15,2013-04-30 13:30:00,
2013-04-30 09:40:00,60.7,59.8,30.08,East,89,0.0,0.0,97,0.00,,,0.01,Wunderground v.1.15,2013-04-30 13:40:00,
2013-04-30 09:45:00,60.9,60.0,30.08,SE,132,0.0,0.0,97,0.00,,,0.01,Wunderground v.1.15,2013-04-30 13:45:00,
2013-04-30 09:50:00,61.2,60.3,30.08,North,1,0.0,1.0,97,0.00,,,0.01,Wunderground v.1.15,2013-04-30 13:50:00,
2013-04-30 10:00:00,61.8,60.6,30.09,ESE,102,0.0,0.0,96,0.00,,,0.01,Wunderground v.1.15,2013-04-30 14:00:00,
2013-04-30 10:05:00,61.9,60.5,30.09,ESE,104,0.0,0.0,95,0.00,,,0.01,Wunderground v.1.15,2013-04-30 14:05:00,
2013-04-30 10:15:00,61.6,60.2,30.09,ENE,68,0.0,2.0,95,0.00,,,0.01,Wunderground v.1.15,2013-04-30 14:15:00,
2013-04-30 10:20:00,61.6,60.2,30.09,SSE,153,0.0,0.0,95,0.00,,,0.01,Wunderground v.1.15,2013-04-30 14:20:00,
2013-04-30 10:25:00,61.6,60.2,30.09,SSE,160,0.0,0.0,95,0.00,,,0.01,Wunderground v.1.15,2013-04-30 14:25:00,
2013-04-30 10:35:00,61.4,59.7,30.09,East,80,0.0,0.0,94,0.00,,,0.01,Wunderground v.1.15,2013-04-30 14:35:00,
2013-04-30 10:40:00,61.2,59.5,30.09,SE,143,0.0,0.0,94,0.00,,,0.01,Wunderground v.1.15,2013-04-30 14:40:00,
2013-04-30 10:45:00,61.1,59.7,30.09,SE,146,0.0,1.0,95,0.00,,,0.01,Wunderground v.1.15,2013-04-30 14:45:00,
2013-04-30 10:55:00,61.1,59.7,30.10,East,101,0.0,1.0,95,0.00,,,0.01,Wunderground v.1.15,2013-04-30 14:55:00,
2013-04-30 11:00:00,61.1,59.7,30.10,East,100,0.0,0.0,95,0.00,,,0.01,Wunderground v.1.15,2013-04-30 15:00:00,
2013-04-30 11:10:00,61.4,60.0,30.10,East,84,0.0,0.0,95,0.00,,,0.01,Wunderground v.1.15,2013-04-30 15:10:00,
2013-04-30 11:15:00,61.5,59.8,30.10,SSE,161,0.0,1.0,94,0.00,,,0.01,Wunderground v.1.15,2013-04-30 15:15:00,
2013-04-30 11:20:00,61.5,59.8,30.10,East,88,0.0,0.0,94,0.00,,,0.01,Wunderground v.1.15,2013-04-30 15:20:00,
2013-04-30 11:30:00,61.9,60.2,30.10,SE,138,0.0,1.0,94,0.00,,,0.01,Wunderground v.1.15,2013-04-30 15:30:00,
2013-04-30 11:35:00,62.1,60.1,30.10,NE,56,0.0,1.0,93,0.00,,,0.01,Wunderground v.1.15,2013-04-30 15:35:00,
2013-04-30 11:40:00,62.2,59.8,30.10,NE,50,0.0,0.0,92,0.00,,,0.01,Wunderground v.1.15,2013-04-30 15:40:00,
2013-04-30 11:50:00,62.4,60.0,30.10,SE,124,0.0,0.0,92,0.00,,,0.01,Wunderground v.1.15,2013-04-30 15:50:00,
2013-04-30 11:55:00,62.5,59.8,30.09,ESE,120,0.0,0.0,91,0.00,,,0.01,Wunderground v.1.15,2013-04-30 15:55:00,
2013-04-30 12:00:00,62.5,60.1,30.09,ENE,60,0.0,0.0,92,0.00,,,0.01,Wunderground v.1.15,2013-04-30 16:00:00,
2013-04-30 12:10:00,63.1,60.1,30.09,East,93,0.0,0.0,90,0.00,,,0.01,Wunderground v.1.15,2013-04-30 16:10:00,
2013-04-30 12:15:00,63.3,60.6,30.09,East,93,0.0,0.0,91,0.00,,,0.01,Wunderground v.1.15,2013-04-30 16:15:00,
2013-04-30 12:25:00,63.5,60.5,30.09,NE,53,0.0,0.0,90,0.00,,,0.01,Wunderground v.1.15,2013-04-30 16:25:00,
2013-04-30 12:30:00,63.7,60.7,30.09,NE,56,0.0,0.0,90,0.00,,,0.01,Wunderground v.1.15,2013-04-30 16:30:00,
2013-04-30 12:40:00,64.1,60.8,30.09,ENE,65,0.0,0.0,89,0.00,,,0.01,Wunderground v.1.15,2013-04-30 16:40:00,
2013-04-30 12:45:00,64.2,60.9,30.09,South,187,0.0,1.0,89,0.00,,,0.01,Wunderground v.1.15,2013-04-30 16:45:00,
2013-04-30 12:50:00,64.1,60.8,30.09,South,189,0.0,0.0,89,0.00,,,0.01,Wunderground v.1.15,2013-04-30 16:50:00,
2013-04-30 13:00:00,63.8,60.5,30.09,ESE,120,0.0,0.0,89,0.00,,,0.01,Wunderground v.1.15,2013-04-30 17:00:00,
2013-04-30 13:10:00,63.6,60.6,30.09,ESE,110,0.0,0.0,90,0.00,,,0.01,Wunderground v.1.15,2013-04-30 17:10:00,
2013-04-30 13:15:00,63.7,60.4,30.09,SE,146,0.0,0.0,89,0.00,,,0.01,Wunderground v.1.15,2013-04-30 17:15:00,
2013-04-30 13:25:00,63.8,60.5,30.09,ENE,63,0.0,0.0,89,0.00,,,0.01,Wunderground v.1.15,2013-04-30 17:25:00,
2013-04-30 13:30:00,63.9,60.6,30.09,East,101,0.0,0.0,89,0.00,,,0.01,Wunderground v.1.15,2013-04-30 17:30:00,
2013-04-30 13:40:00,64.0,60.4,30.09,ESE,110,0.0,0.0,88,0.00,,,0.01,Wunderground v.1.15,2013-04-30 17:40:00,
2013-04-30 13:45:00,64.0,60.4,30.09,ENE,60,0.0,0.0,88,0.00,,,0.01,Wunderground v.1.15,2013-04-30 17:45:00,
2013-04-30 13:55:00,63.8,60.5,30.08,ENE,61,0.0,0.0,89,0.00,,,0.01,Wunderground v.1.15,2013-04-30 17:55:00,
2013-04-30 14:00:00,63.7,60.4,30.08,East,84,0.0,0.0,89,0.00,,,0.01,Wunderground v.1.15,2013-04-30 18:00:00,
2013-04-30 14:10:00,64.0,60.7,30.08,SSE,166,0.0,0.0,89,0.00,,,0.01,Wunderground v.1.15,2013-04-30 18:10:00,
2013-04-30 14:15:00,64.2,60.6,30.08,SE,127,0.0,0.0,88,0.00,,,0.01,Wunderground v.1.15,2013-04-30 18:15:00,
2013-04-30 14:20:00,64.3,60.7,30.09,SE,127,0.0,0.0,88,0.00,,,0.01,Wunderground v.1.15,2013-04-30 18:20:00,
2013-04-30 14:30:00,64.1,60.2,30.09,ENE,68,0.0,0.0,87,0.00,,,0.01,Wunderground v.1.15,2013-04-30 18:30:00,
2013-04-30 14:35:00,64.0,60.4,30.08,ENE,70,0.0,0.0,88,0.00,,,0.01,Wunderground v.1.15,2013-04-30 18:35:00,
2013-04-30 14:40:00,64.0,60.4,30.08,ENE,70,0.0,0.0,88,0.00,,,0.01,Wunderground v.1.15,2013-04-30 18:40:00,
2013-04-30 14:50:00,64.0,60.4,30.09,ENE,70,0.0,0.0,88,0.00,,,0.01,Wunderground v.1.15,2013-04-30 18:50:00,
2013-04-30 14:55:00,64.1,60.5,30.09,ENE,69,0.0,0.0,88,0.00,,,0.01,Wunderground v.1.15,2013-04-30 18:55:00,
2013-04-30 15:00:00,64.2,60.2,30.09,ESE,110,0.0,0.0,87,0.00,,,0.01,Wunderground v.1.15,2013-04-30 19:00:00,
2013-04-30 15:10:00,64.0,60.4,30.08,ESE,103,0.0,0.0,88,0.00,,,0.01,Wunderground v.1.15,2013-04-30 19:10:00,
2013-04-30 15:15:00,64.2,60.2,30.08,ESE,103,0.0,0.0,87,0.00,,,0.01,Wunderground v.1.15,2013-04-30 19:15:00,
2013-04-30 15:25:00,64.3,59.7,30.08,NE,56,0.0,0.0,85,0.00,,,0.01,Wunderground v.1.15,2013-04-30 19:25:00,
2013-04-30 15:30:00,64.4,59.8,30.08,ENE,65,0.0,0.0,85,0.00,,,0.01,Wunderground v.1.15,2013-04-30 19:30:00,
2013-04-30 15:40:00,64.7,60.1,30.08,SE,127,0.0,0.0,85,0.00,,,0.01,Wunderground v.1.15,2013-04-30 19:40:00,
2013-04-30 15:45:00,64.9,60.6,30.08,SE,127,0.0,0.0,86,0.00,,,0.01,Wunderground v.1.15,2013-04-30 19:45:00,
2013-04-30 15:55:00,65.6,61.3,30.08,SE,130,0.0,0.0,86,0.00,,,0.01,Wunderground v.1.15,2013-04-30 19:55:00,
2013-04-30 16:00:00,65.8,60.8,30.07,East,85,0.0,0.0,84,0.00,,,0.01,Wunderground v.1.15,2013-04-30 20:00:00,
2013-04-30 16:10:00,65.8,60.5,30.07,ENE,65,0.0,0.0,83,0.00,,,0.01,Wunderground v.1.15,2013-04-30 20:10:00,
2013-04-30 16:15:00,65.9,60.9,30.07,ENE,67,0.0,0.0,84,0.00,,,0.01,Wunderground v.1.15,2013-04-30 20:15:00,
2013-04-30 16:20:00,65.8,60.8,30.08,ENE,66,0.0,0.0,84,0.00,,,0.01,Wunderground v.1.15,2013-04-30 20:20:00,
2013-04-30 16:25:00,65.6,61.0,30.07,ENE,66,0.0,0.0,85,0.00,,,0.01,Wunderground v.1.15,2013-04-30 20:25:00,
2013-04-30 16:35:00,65.4,61.1,30.07,ENE,67,0.0,0.0,86,0.00,,,0.01,Wunderground v.1.15,2013-04-30 20:35:00,
2013-04-30 16:40:00,65.2,61.2,30.07,ENE,67,0.0,0.0,87,0.00,,,0.01,Wunderground v.1.15,2013-04-30 20:40:00,
2013-04-30 16:50:00,65.2,61.2,30.08,ENE,67,0.0,0.0,87,0.00,,,0.01,Wunderground v.1.15,2013-04-30 20:50:00,
2013-04-30 16:55:00,65.3,60.7,30.08,ENE,67,0.0,0.0,85,0.00,,,0.01,Wunderground v.1.15,2013-04-30 20:55:00,
2013-04-30 17:00:00,65.6,60.6,30.08,ENE,67,0.0,0.0,84,0.00,,,0.01,Wunderground v.1.15,2013-04-30 21:00:00,
2013-04-30 17:10:00,66.0,60.7,30.08,East,89,0.0,0.0,83,0.00,,,0.01,Wunderground v.1.15,2013-04-30 21:10:00,
2013-04-30 17:15:00,66.1,60.8,30.08,East,89,0.0,0.0,83,0.00,,,0.01,Wunderground v.1.15,2013-04-30 21:15:00,
2013-04-30 17:25:00,66.2,60.9,30.08,NE,46,0.0,1.0,83,0.00,,,0.01,Wunderground v.1.15,2013-04-30 21:25:00,
2013-04-30 17:30:00,66.1,60.4,30.09,East,91,0.0,0.0,82,0.00,,,0.01,Wunderground v.1.15,2013-04-30 21:30:00,
2013-04-30 17:35:00,65.8,60.2,30.09,ESE,120,0.0,0.0,82,0.00,,,0.01,Wunderground v.1.15,2013-04-30 21:35:00,
2013-04-30 17:45:00,65.2,59.9,30.09,ESE,106,0.0,0.0,83,0.00,,,0.01,Wunderground v.1.15,2013-04-30 21:45:00,
2013-04-30 17:50:00,65.1,59.8,30.09,ESE,108,0.0,0.0,83,0.00,,,0.01,Wunderground v.1.15,2013-04-30 21:50:00,
2013-04-30 17:55:00,65.2,60.2,30.09,SE,125,0.0,0.0,84,0.00,,,0.01,Wunderground v.1.15,2013-04-30 21:55:00,
2013-04-30 18:05:00,65.2,59.9,30.10,East,99,0.0,0.0,83,0.00,,,0.01,Wunderground v.1.15,2013-04-30 22:05:00,
2013-04-30 18:10:00,65.2,60.2,30.10,East,99,0.0,0.0,84,0.00,,,0.01,Wunderground v.1.15,2013-04-30 22:10:00,
2013-04-30 18:15:00,65.2,60.2,30.10,East,99,0.0,0.0,84,0.00,,,0.01,Wunderground v.1.15,2013-04-30 22:15:00,
2013-04-30 18:25:00,65.1,59.8,30.10,East,99,0.0,0.0,83,0.00,,,0.01,Wunderground v.1.15,2013-04-30 22:25:00,
2013-04-30 18:30:00,64.9,59.6,30.10,East,99,0.0,0.0,83,0.00,,,0.01,Wunderground v.1.15,2013-04-30 22:30:00,
2013-04-30 18:35:00,64.8,59.2,30.10,East,99,0.0,0.0,82,0.00,,,0.01,Wunderground v.1.15,2013-04-30 22:35:00,
2013-04-30 18:40:00,64.7,59.4,30.10,East,99,0.0,0.0,83,0.00,,,0.01,Wunderground v.1.15,2013-04-30 22:40:00,
2013-04-30 18:45:00,64.7,59.4,30.10,East,99,0.0,0.0,83,0.00,,,0.01,Wunderground v.1.15,2013-04-30 22:45:00,
2013-04-30 18:55:00,64.5,59.6,30.11,East,99,0.0,0.0,84,0.00,,,0.01,Wunderground v.1.15,2013-04-30 22:55:00,
2013-04-30 19:00:00,64.4,59.8,30.11,East,98,0.0,0.0,85,0.00,,,0.01,Wunderground v.1.15,2013-04-30 23:00:00,
2013-04-30 19:10:00,64.2,59.3,30.11,East,99,0.0,0.0,84,0.00,,,0.01,Wunderground v.1.15,2013-04-30 23:10:00,
2013-04-30 19:15:00,64.1,59.5,30.11,East,99,0.0,0.0,85,0.00,,,0.01,Wunderground v.1.15,2013-04-30 23:15:00,
2013-04-30 19:25:00,63.9,59.3,30.11,SE,131,0.0,0.0,85,0.00,,,0.01,Wunderground v.1.15,2013-04-30 23:25:00,
2013-04-30 19:30:00,63.8,59.2,30.12,SE,127,0.0,0.0,85,0.00,,,0.01,Wunderground v.1.15,2013-04-30 23:30:00,
2013-04-30 19:40:00,63.6,59.3,30.12,SE,127,0.0,0.0,86,0.00,,,0.01,Wunderground v.1.15,2013-04-30 23:40:00,
2013-04-30 19:45:00,63.4,59.1,30.12,SE,132,0.0,0.0,86,0.00,,,0.01,Wunderground v.1.15,2013-04-30 23:45:00,
2013-04-30 19:50:00,63.2,58.9,30.13,SE,141,0.0,0.0,86,0.00,,,0.01,Wunderground v.1.15,2013-04-30 23:50:00,
2013-04-30 20:00:00,63.0,58.7,30.13,SE,131,0.0,0.0,86,0.00,,,0.01,Wunderground v.1.15,2013-05-01 00:00:00,
2013-04-30 20:05:00,62.8,58.5,30.13,SE,131,0.0,0.0,86,0.00,,,0.01,Wunderground v.1.15,2013-05-01 00:05:00,
2013-04-30 20:10:00,62.7,58.5,30.13,SE,131,0.0,0.0,86,0.00,,,0.01,Wunderground v.1.15,2013-05-01 00:10:00,
2013-04-30 20:20:00,62.5,58.6,30.13,SE,131,0.0,0.0,87,0.00,,,0.01,Wunderground v.1.15,2013-05-01 00:20:00,
2013-04-30 20:25:00,62.4,58.5,30.14,SE,131,0.0,0.0,87,0.00,,,0.01,Wunderground v.1.15,2013-05-01 00:25:00,
2013-04-30 20:35:00,62.2,58.6,30.14,SE,131,0.0,0.0,88,0.00,,,0.01,Wunderground v.1.15,2013-05-01 00:35:00,
2013-04-30 20:40:00,62.1,58.2,30.14,SE,131,0.0,0.0,87,0.00,,,0.01,Wunderground v.1.15,2013-05-01 00:40:00,
2013-04-30 20:45:00,62.0,58.4,30.14,SE,131,0.0,0.0,88,0.00,,,0.01,Wunderground v.1.15,2013-05-01 00:45:00,
2013-04-30 20:55:00,61.7,58.1,30.14,SE,131,0.0,0.0,88,0.00,,,0.01,Wunderground v.1.15,2013-05-01 00:55:00,
2013-04-30 21:00:00,61.6,58.0,30.14,SE,131,0.0,0.0,88,0.00,,,0.01,Wunderground v.1.15,2013-05-01 01:00:00,
2013-04-30 21:10:00,61.1,57.8,30.14,SE,131,0.0,0.0,89,0.00,,,0.01,Wunderground v.1.15,2013-05-01 01:10:00,
2013-04-30 21:15:00,60.9,57.6,30.14,SE,131,0.0,0.0,89,0.00,,,0.01,Wunderground v.1.15,2013-05-01 01:15:00,
2013-04-30 21:25:00,60.2,56.9,30.14,SE,129,0.0,0.0,89,0.00,,,0.01,Wunderground v.1.15,2013-05-01 01:25:00,
2013-04-30 21:30:00,59.9,57.0,30.14,SE,131,0.0,0.0,90,0.00,,,0.01,Wunderground v.1.15,2013-05-01 01:30:00,
2013-04-30 21:35:00,59.6,57.0,30.14,SE,131,0.0,0.0,91,0.00,,,0.01,Wunderground v.1.15,2013-05-01 01:35:00,
2013-04-30 21:45:00,58.9,56.6,30.14,SE,131,0.0,0.0,92,0.00,,,0.01,Wunderground v.1.15,2013-05-01 01:45:00,
2013-04-30 21:50:00,58.5,56.2,30.15,SE,131,0.0,0.0,92,0.00,,,0.01,Wunderground v.1.15,2013-05-01 01:50:00,
2013-04-30 21:55:00,58.1,56.1,30.15,SE,131,0.0,0.0,93,0.00,,,0.01,Wunderground v.1.15,2013-05-01 01:55:00,
2013-04-30 22:05:00,57.5,55.8,30.15,SE,129,0.0,0.0,94,0.00,,,0.01,Wunderground v.1.15,2013-05-01 02:05:00,
2013-04-30 22:10:00,57.4,55.7,30.15,SE,130,0.0,0.0,94,0.00,,,0.01,Wunderground v.1.15,2013-05-01 02:10:00,
2013-04-30 22:15:00,57.2,55.5,30.15,SE,129,0.0,0.0,94,0.00,,,0.01,Wunderground v.1.15,2013-05-01 02:15:00,
2013-04-30 22:25:00,56.8,55.4,30.15,SE,130,0.0,0.0,95,0.00,,,0.01,Wunderground v.1.15,2013-05-01 02:25:00,
2013-04-30 22:30:00,56.7,55.3,30.15,SE,129,0.0,0.0,95,0.00,,,0.01,Wunderground v.1.15,2013-05-01 02:30:00,
2013-04-30 22:40:00,56.4,55.3,30.15,SE,129,0.0,0.0,96,0.00,,,0.01,Wunderground v.1.15,2013-05-01 02:40:00,
2013-04-30 22:45:00,56.3,55.2,30.15,SE,130,0.0,0.0,96,0.00,,,0.01,Wunderground v.1.15,2013-05-01 02:45:00,
2013-04-30 22:55:00,56.1,55.0,30.15,SE,129,0.0,0.0,96,0.00,,,0.01,Wunderground v.1.15,2013-05-01 02:55:00,
2013-04-30 23:00:00,56.0,54.9,30.15,SE,129,0.0,0.0,96,0.00,,,0.01,Wunderground v.1.15,2013-05-01 03:00:00,
2013-04-30 23:10:00,55.8,54.7,30.14,SE,129,0.0,0.0,96,0.00,,,0.01,Wunderground v.1.15,2013-05-01 03:10:00,
2013-04-30 23:15:00,55.7,54.6,30.14,SE,129,0.0,0.0,96,0.00,,,0.01,Wunderground v.1.15,2013-05-01 03:15:00,
2013-04-30 23:20:00,55.7,54.9,30.14,SE,129,0.0,0.0,97,0.00,,,0.01,Wunderground v.1.15,2013-05-01 03:20:00,
2013-04-30 23:25:00,55.5,54.4,30.14,SE,129,0.0,0.0,96,0.00,,,0.01,Wunderground v.1.15,2013-05-01 03:25:00,
2013-04-30 23:35:00,55.3,54.5,30.14,SE,129,0.0,0.0,97,0.00,,,0.01,Wunderground v.1.15,2013-05-01 03:35:00,